sensor_id;sensor_type;location;lat;lon;timestamp;P1;durP1;ratioP1;P2;durP2;ratioP2
1603;SDS011;795;49.296;11.348;2022-10-31T00:01:28;24.80;;;10.73;;
1603;SDS011;795;49.296;11.348;2022-10-31T00:04:02;14.67;;;11.03;;
1603;SDS011;795;49.296;11.348;2022-10-31T00:06:31;12.23;;;10.13;;
1603;SDS011;795;49.296;11.348;2022-10-31T00:08:59;13.10;;;11.37;;
1603;SDS011;795;49.296;11.348;2022-10-31T00:11:30;17.10;;;10.60;;
1603;SDS011;795;49.296;11.348;2022-10-31T00:13:58;20.40;;;11.47;;
1603;SDS011;795;49.296;11.348;2022-10-31T00:16:26;19.50;;;13.10;;
1603;SDS011;795;49.296;11.348;2022-10-31T00:18:56;15.17;;;12.00;;
1603;SDS011;795;49.296;11.348;2022-10-31T00:21:32;16.60;;;11.03;;
1603;SDS011;795;49.296;11.348;2022-10-31T00:24:00;28.40;;;14.80;;
1603;SDS011;795;49.296;11.348;2022-10-31T00:26:29;16.87;;;13.60;;
1603;SDS011;795;49.296;11.348;2022-10-31T00:28:57;16.77;;;13.17;;
1603;SDS011;795;49.296;11.348;2022-10-31T00:31:26;21.10;;;11.97;;
1603;SDS011;795;49.296;11.348;2022-10-31T00:33:53;16.30;;;12.23;;
1603;SDS011;795;49.296;11.348;2022-10-31T00:36:20;21.00;;;12.60;;
1603;SDS011;795;49.296;11.348;2022-10-31T00:38:47;16.97;;;11.77;;
1603;SDS011;795;49.296;11.348;2022-10-31T00:41:15;16.87;;;12.20;;
1603;SDS011;795;49.296;11.348;2022-10-31T00:43:44;17.43;;;11.90;;
1603;SDS011;795;49.296;11.348;2022-10-31T00:46:11;15.00;;;11.60;;
1603;SDS011;795;49.296;11.348;2022-10-31T00:48:39;18.70;;;12.47;;
1603;SDS011;795;49.296;11.348;2022-10-31T00:51:07;15.70;;;12.67;;
1603;SDS011;795;49.296;11.348;2022-10-31T00:53:34;20.07;;;12.80;;
1603;SDS011;795;49.296;11.348;2022-10-31T00:56:01;16.13;;;12.90;;
1603;SDS011;795;49.296;11.348;2022-10-31T00:58:29;15.20;;;12.33;;
1603;SDS011;795;49.296;11.348;2022-10-31T01:00:56;21.03;;;12.73;;
1603;SDS011;795;49.296;11.348;2022-10-31T01:03:24;25.50;;;11.60;;
1603;SDS011;795;49.296;11.348;2022-10-31T01:06:01;15.53;;;11.93;;
1603;SDS011;795;49.296;11.348;2022-10-31T01:08:31;16.87;;;10.73;;
1603;SDS011;795;49.296;11.348;2022-10-31T01:13:49;12.63;;;11.30;;
1603;SDS011;795;49.296;11.348;2022-10-31T01:16:20;15.57;;;11.10;;
1603;SDS011;795;49.296;11.348;2022-10-31T01:18:52;17.50;;;10.83;;
1603;SDS011;795;49.296;11.348;2022-10-31T01:21:21;18.43;;;11.00;;
1603;SDS011;795;49.296;11.348;2022-10-31T01:23:53;20.83;;;10.07;;
1603;SDS011;795;49.296;11.348;2022-10-31T01:26:26;14.20;;;9.87;;
1603;SDS011;795;49.296;11.348;2022-10-31T01:29:01;19.97;;;10.93;;
1603;SDS011;795;49.296;11.348;2022-10-31T01:31:37;13.80;;;9.77;;
1603;SDS011;795;49.296;11.348;2022-10-31T01:34:05;12.53;;;9.43;;
1603;SDS011;795;49.296;11.348;2022-10-31T01:36:34;13.17;;;10.20;;
1603;SDS011;795;49.296;11.348;2022-10-31T01:39:05;10.03;;;9.03;;
1603;SDS011;795;49.296;11.348;2022-10-31T01:41:41;16.57;;;10.50;;
1603;SDS011;795;49.296;11.348;2022-10-31T01:46:46;11.13;;;8.53;;
1603;SDS011;795;49.296;11.348;2022-10-31T01:49:33;9.63;;;8.60;;
1603;SDS011;795;49.296;11.348;2022-10-31T01:54:59;12.30;;;8.47;;
1603;SDS011;795;49.296;11.348;2022-10-31T01:57:33;12.20;;;8.67;;
1603;SDS011;795;49.296;11.348;2022-10-31T02:00:07;12.93;;;9.50;;
1603;SDS011;795;49.296;11.348;2022-10-31T02:02:37;10.13;;;8.60;;
1603;SDS011;795;49.296;11.348;2022-10-31T02:05:06;16.73;;;9.53;;
1603;SDS011;795;49.296;11.348;2022-10-31T02:08:02;12.90;;;9.33;;
1603;SDS011;795;49.296;11.348;2022-10-31T02:10:46;8.70;;;7.90;;
1603;SDS011;795;49.296;11.348;2022-10-31T02:13:13;11.67;;;7.93;;
1603;SDS011;795;49.296;11.348;2022-10-31T02:15:42;15.23;;;9.20;;
1603;SDS011;795;49.296;11.348;2022-10-31T02:18:14;14.20;;;8.77;;
1603;SDS011;795;49.296;11.348;2022-10-31T02:20:47;12.20;;;6.97;;
1603;SDS011;795;49.296;11.348;2022-10-31T02:30:37;12.07;;;8.03;;
1603;SDS011;795;49.296;11.348;2022-10-31T02:33:49;9.60;;;8.60;;
1603;SDS011;795;49.296;11.348;2022-10-31T02:42:14;13.80;;;9.10;;
1603;SDS011;795;49.296;11.348;2022-10-31T02:45:08;10.67;;;9.20;;
1603;SDS011;795;49.296;11.348;2022-10-31T02:48:03;9.80;;;8.90;;
1603;SDS011;795;49.296;11.348;2022-10-31T02:50:46;11.20;;;8.30;;
1603;SDS011;795;49.296;11.348;2022-10-31T02:53:23;10.87;;;8.40;;
1603;SDS011;795;49.296;11.348;2022-10-31T02:55:54;8.60;;;7.30;;
1603;SDS011;795;49.296;11.348;2022-10-31T02:58:31;8.63;;;7.83;;
1603;SDS011;795;49.296;11.348;2022-10-31T03:01:14;9.13;;;7.80;;
1603;SDS011;795;49.296;11.348;2022-10-31T03:10:59;9.27;;;7.30;;
1603;SDS011;795;49.296;11.348;2022-10-31T03:13:40;8.93;;;7.00;;
1603;SDS011;795;49.296;11.348;2022-10-31T03:16:29;6.83;;;6.13;;
1603;SDS011;795;49.296;11.348;2022-10-31T03:19:55;9.03;;;6.80;;
1603;SDS011;795;49.296;11.348;2022-10-31T03:22:22;7.57;;;6.63;;
1603;SDS011;795;49.296;11.348;2022-10-31T03:24:55;6.77;;;6.17;;
1603;SDS011;795;49.296;11.348;2022-10-31T03:27:26;9.60;;;6.50;;
1603;SDS011;795;49.296;11.348;2022-10-31T03:30:03;7.20;;;6.60;;
1603;SDS011;795;49.296;11.348;2022-10-31T03:32:41;7.70;;;6.27;;
1603;SDS011;795;49.296;11.348;2022-10-31T03:35:20;7.70;;;6.87;;
1603;SDS011;795;49.296;11.348;2022-10-31T03:37:53;27.47;;;8.30;;
1603;SDS011;795;49.296;11.348;2022-10-31T03:40:32;26.07;;;7.80;;
1603;SDS011;795;49.296;11.348;2022-10-31T03:43:09;44.33;;;10.10;;
1603;SDS011;795;49.296;11.348;2022-10-31T03:45:53;39.00;;;8.23;;
1603;SDS011;795;49.296;11.348;2022-10-31T03:48:21;8.17;;;6.40;;
1603;SDS011;795;49.296;11.348;2022-10-31T03:50:57;6.27;;;5.77;;
1603;SDS011;795;49.296;11.348;2022-10-31T03:56:42;6.63;;;6.03;;
1603;SDS011;795;49.296;11.348;2022-10-31T03:59:51;6.20;;;5.80;;
1603;SDS011;795;49.296;11.348;2022-10-31T04:02:32;6.93;;;6.23;;
1603;SDS011;795;49.296;11.348;2022-10-31T04:05:06;6.80;;;6.27;;
1603;SDS011;795;49.296;11.348;2022-10-31T04:07:37;6.63;;;6.13;;
1603;SDS011;795;49.296;11.348;2022-10-31T04:10:13;7.47;;;6.87;;
1603;SDS011;795;49.296;11.348;2022-10-31T04:12:43;6.40;;;5.90;;
1603;SDS011;795;49.296;11.348;2022-10-31T04:15:24;5.83;;;5.43;;
1603;SDS011;795;49.296;11.348;2022-10-31T04:17:57;6.50;;;6.00;;
1603;SDS011;795;49.296;11.348;2022-10-31T04:20:33;16.63;;;6.33;;
1603;SDS011;795;49.296;11.348;2022-10-31T04:23:18;9.07;;;6.40;;
1603;SDS011;795;49.296;11.348;2022-10-31T04:25:51;6.63;;;5.73;;
1603;SDS011;795;49.296;11.348;2022-10-31T04:28:18;7.70;;;5.93;;
1603;SDS011;795;49.296;11.348;2022-10-31T04:30:45;6.03;;;5.43;;
1603;SDS011;795;49.296;11.348;2022-10-31T04:33:12;6.60;;;6.00;;
1603;SDS011;795;49.296;11.348;2022-10-31T04:35:39;5.80;;;5.40;;
1603;SDS011;795;49.296;11.348;2022-10-31T04:38:07;6.60;;;6.00;;
1603;SDS011;795;49.296;11.348;2022-10-31T04:40:34;5.70;;;5.23;;
1603;SDS011;795;49.296;11.348;2022-10-31T04:43:01;8.83;;;6.17;;
1603;SDS011;795;49.296;11.348;2022-10-31T04:45:28;5.63;;;5.10;;
1603;SDS011;795;49.296;11.348;2022-10-31T04:47:55;5.90;;;5.50;;
1603;SDS011;795;49.296;11.348;2022-10-31T04:50:23;6.03;;;5.53;;
1603;SDS011;795;49.296;11.348;2022-10-31T04:52:49;6.70;;;6.00;;
1603;SDS011;795;49.296;11.348;2022-10-31T04:55:16;7.07;;;6.37;;
1603;SDS011;795;49.296;11.348;2022-10-31T04:57:44;6.00;;;5.40;;
1603;SDS011;795;49.296;11.348;2022-10-31T05:00:16;6.27;;;5.77;;
1603;SDS011;795;49.296;11.348;2022-10-31T05:02:47;6.20;;;5.70;;
1603;SDS011;795;49.296;11.348;2022-10-31T05:05:27;7.20;;;6.50;;
1603;SDS011;795;49.296;11.348;2022-10-31T05:07:57;8.73;;;6.27;;
1603;SDS011;795;49.296;11.348;2022-10-31T05:10:25;5.70;;;5.30;;
1603;SDS011;795;49.296;11.348;2022-10-31T05:12:57;6.37;;;5.67;;
1603;SDS011;795;49.296;11.348;2022-10-31T05:15:28;5.90;;;5.37;;
1603;SDS011;795;49.296;11.348;2022-10-31T05:17:56;6.93;;;6.33;;
1603;SDS011;795;49.296;11.348;2022-10-31T05:20:25;6.67;;;6.17;;
1603;SDS011;795;49.296;11.348;2022-10-31T05:22:56;6.20;;;5.70;;
1603;SDS011;795;49.296;11.348;2022-10-31T05:25:26;7.27;;;5.33;;
1603;SDS011;795;49.296;11.348;2022-10-31T05:27:55;5.90;;;5.43;;
1603;SDS011;795;49.296;11.348;2022-10-31T05:30:33;6.27;;;5.70;;
1603;SDS011;795;49.296;11.348;2022-10-31T05:33:01;6.70;;;6.17;;
1603;SDS011;795;49.296;11.348;2022-10-31T05:35:29;5.90;;;5.40;;
1603;SDS011;795;49.296;11.348;2022-10-31T05:37:58;11.90;;;5.67;;
1603;SDS011;795;49.296;11.348;2022-10-31T05:40:26;6.60;;;6.00;;
1603;SDS011;795;49.296;11.348;2022-10-31T05:42:54;7.30;;;6.37;;
1603;SDS011;795;49.296;11.348;2022-10-31T05:45:25;13.50;;;6.70;;
1603;SDS011;795;49.296;11.348;2022-10-31T05:47:52;6.93;;;6.23;;
1603;SDS011;795;49.296;11.348;2022-10-31T05:50:26;7.53;;;6.83;;
1603;SDS011;795;49.296;11.348;2022-10-31T05:53:00;7.70;;;7.00;;
1603;SDS011;795;49.296;11.348;2022-10-31T05:55:31;7.80;;;7.00;;
1603;SDS011;795;49.296;11.348;2022-10-31T05:57:58;7.03;;;6.43;;
1603;SDS011;795;49.296;11.348;2022-10-31T06:00:26;8.40;;;6.93;;
1603;SDS011;795;49.296;11.348;2022-10-31T06:03:01;8.73;;;7.73;;
1603;SDS011;795;49.296;11.348;2022-10-31T06:05:31;10.60;;;7.20;;
1603;SDS011;795;49.296;11.348;2022-10-31T06:07:59;36.47;;;9.50;;
1603;SDS011;795;49.296;11.348;2022-10-31T06:10:27;19.13;;;8.20;;
1603;SDS011;795;49.296;11.348;2022-10-31T06:12:54;13.67;;;8.70;;
1603;SDS011;795;49.296;11.348;2022-10-31T06:15:21;11.47;;;7.33;;
1603;SDS011;795;49.296;11.348;2022-10-31T06:18:00;13.70;;;8.00;;
1603;SDS011;795;49.296;11.348;2022-10-31T06:20:32;9.73;;;8.70;;
1603;SDS011;795;49.296;11.348;2022-10-31T06:23:00;9.10;;;8.20;;
1603;SDS011;795;49.296;11.348;2022-10-31T06:25:29;8.90;;;8.00;;
1603;SDS011;795;49.296;11.348;2022-10-31T06:27:56;7.77;;;6.93;;
1603;SDS011;795;49.296;11.348;2022-10-31T06:30:23;9.90;;;8.77;;
1603;SDS011;795;49.296;11.348;2022-10-31T06:32:50;9.63;;;8.00;;
1603;SDS011;795;49.296;11.348;2022-10-31T06:35:17;8.17;;;7.37;;
1603;SDS011;795;49.296;11.348;2022-10-31T06:37:51;10.60;;;8.23;;
1603;SDS011;795;49.296;11.348;2022-10-31T06:40:20;7.87;;;7.10;;
1603;SDS011;795;49.296;11.348;2022-10-31T06:42:47;8.40;;;7.60;;
1603;SDS011;795;49.296;11.348;2022-10-31T06:45:26;23.70;;;9.43;;
1603;SDS011;795;49.296;11.348;2022-10-31T06:47:54;8.50;;;7.67;;
1603;SDS011;795;49.296;11.348;2022-10-31T06:50:42;13.83;;;8.73;;
1603;SDS011;795;49.296;11.348;2022-10-31T06:53:09;8.90;;;8.00;;
1603;SDS011;795;49.296;11.348;2022-10-31T06:55:37;11.13;;;10.03;;
1603;SDS011;795;49.296;11.348;2022-10-31T06:58:03;10.70;;;9.70;;
1603;SDS011;795;49.296;11.348;2022-10-31T07:00:31;10.67;;;9.57;;
1603;SDS011;795;49.296;11.348;2022-10-31T07:03:03;10.53;;;9.53;;
1603;SDS011;795;49.296;11.348;2022-10-31T07:05:35;10.20;;;9.20;;
1603;SDS011;795;49.296;11.348;2022-10-31T07:08:03;14.10;;;10.57;;
1603;SDS011;795;49.296;11.348;2022-10-31T07:10:35;13.70;;;10.90;;
1603;SDS011;795;49.296;11.348;2022-10-31T07:13:08;10.50;;;9.60;;
1603;SDS011;795;49.296;11.348;2022-10-31T07:15:40;11.03;;;9.93;;
1603;SDS011;795;49.296;11.348;2022-10-31T07:18:10;16.97;;;9.80;;
1603;SDS011;795;49.296;11.348;2022-10-31T07:20:38;12.93;;;11.40;;
1603;SDS011;795;49.296;11.348;2022-10-31T07:23:05;16.77;;;11.57;;
1603;SDS011;795;49.296;11.348;2022-10-31T07:25:35;12.77;;;11.40;;
1603;SDS011;795;49.296;11.348;2022-10-31T07:28:01;16.43;;;12.83;;
1603;SDS011;795;49.296;11.348;2022-10-31T07:30:29;19.00;;;12.73;;
1603;SDS011;795;49.296;11.348;2022-10-31T07:32:56;14.70;;;12.20;;
1603;SDS011;795;49.296;11.348;2022-10-31T07:35:24;15.13;;;12.43;;
1603;SDS011;795;49.296;11.348;2022-10-31T07:37:54;16.13;;;11.23;;
1603;SDS011;795;49.296;11.348;2022-10-31T07:40:23;15.00;;;11.47;;
1603;SDS011;795;49.296;11.348;2022-10-31T07:42:52;11.03;;;9.87;;
1603;SDS011;795;49.296;11.348;2022-10-31T07:45:20;15.00;;;10.83;;
1603;SDS011;795;49.296;11.348;2022-10-31T07:47:51;12.50;;;10.03;;
1603;SDS011;795;49.296;11.348;2022-10-31T07:50:20;8.63;;;7.70;;
1603;SDS011;795;49.296;11.348;2022-10-31T07:53:02;10.67;;;8.20;;
1603;SDS011;795;49.296;11.348;2022-10-31T07:55:30;9.43;;;8.53;;
1603;SDS011;795;49.296;11.348;2022-10-31T07:57:59;8.67;;;7.30;;
1603;SDS011;795;49.296;11.348;2022-10-31T08:00:30;9.47;;;6.53;;
1603;SDS011;795;49.296;11.348;2022-10-31T08:03:04;9.03;;;7.03;;
1603;SDS011;795;49.296;11.348;2022-10-31T08:05:41;8.73;;;7.67;;
1603;SDS011;795;49.296;11.348;2022-10-31T08:08:10;8.43;;;7.17;;
1603;SDS011;795;49.296;11.348;2022-10-31T08:10:39;7.40;;;6.03;;
1603;SDS011;795;49.296;11.348;2022-10-31T08:13:11;13.40;;;8.17;;
1603;SDS011;795;49.296;11.348;2022-10-31T08:15:40;9.27;;;7.93;;
1603;SDS011;795;49.296;11.348;2022-10-31T08:18:12;10.50;;;7.97;;
1603;SDS011;795;49.296;11.348;2022-10-31T08:20:41;17.87;;;8.50;;
1603;SDS011;795;49.296;11.348;2022-10-31T08:23:10;8.00;;;7.20;;
1603;SDS011;795;49.296;11.348;2022-10-31T08:25:38;8.70;;;6.70;;
1603;SDS011;795;49.296;11.348;2022-10-31T08:28:06;9.87;;;8.97;;
1603;SDS011;795;49.296;11.348;2022-10-31T08:30:37;13.03;;;8.10;;
1603;SDS011;795;49.296;11.348;2022-10-31T08:33:10;7.80;;;7.00;;
1603;SDS011;795;49.296;11.348;2022-10-31T08:35:42;9.90;;;6.90;;
1603;SDS011;795;49.296;11.348;2022-10-31T08:38:11;13.40;;;6.33;;
1603;SDS011;795;49.296;11.348;2022-10-31T08:40:39;6.13;;;5.53;;
1603;SDS011;795;49.296;11.348;2022-10-31T08:43:16;10.17;;;5.90;;
1603;SDS011;795;49.296;11.348;2022-10-31T08:45:47;11.03;;;6.20;;
1603;SDS011;795;49.296;11.348;2022-10-31T08:48:16;10.67;;;5.87;;
1603;SDS011;795;49.296;11.348;2022-10-31T08:50:44;8.27;;;5.73;;
1603;SDS011;795;49.296;11.348;2022-10-31T08:53:13;7.57;;;5.20;;
1603;SDS011;795;49.296;11.348;2022-10-31T08:55:44;8.23;;;5.37;;
1603;SDS011;795;49.296;11.348;2022-10-31T08:58:13;10.47;;;5.20;;
1603;SDS011;795;49.296;11.348;2022-10-31T09:03:38;10.70;;;5.27;;
1603;SDS011;795;49.296;11.348;2022-10-31T09:06:05;11.17;;;5.60;;
1603;SDS011;795;49.296;11.348;2022-10-31T09:08:35;12.47;;;5.00;;
1603;SDS011;795;49.296;11.348;2022-10-31T09:11:03;15.37;;;6.30;;
1603;SDS011;795;49.296;11.348;2022-10-31T09:13:32;13.50;;;5.23;;
1603;SDS011;795;49.296;11.348;2022-10-31T09:16:06;9.77;;;5.27;;
1603;SDS011;795;49.296;11.348;2022-10-31T09:18:33;6.87;;;4.47;;
1603;SDS011;795;49.296;11.348;2022-10-31T09:21:00;6.70;;;5.07;;
1603;SDS011;795;49.296;11.348;2022-10-31T09:23:27;9.87;;;6.80;;
1603;SDS011;795;49.296;11.348;2022-10-31T09:25:55;5.40;;;4.10;;
1603;SDS011;795;49.296;11.348;2022-10-31T09:28:26;8.60;;;4.80;;
1603;SDS011;795;49.296;11.348;2022-10-31T09:30:53;5.97;;;4.07;;
1603;SDS011;795;49.296;11.348;2022-10-31T09:33:21;8.77;;;5.40;;
1603;SDS011;795;49.296;11.348;2022-10-31T09:35:48;5.70;;;4.57;;
1603;SDS011;795;49.296;11.348;2022-10-31T09:38:18;5.93;;;3.70;;
1603;SDS011;795;49.296;11.348;2022-10-31T09:52:33;6.73;;;4.10;;
1603;SDS011;795;49.296;11.348;2022-10-31T09:57:50;10.60;;;4.30;;
1603;SDS011;795;49.296;11.348;2022-10-31T10:00:20;11.07;;;4.77;;
1603;SDS011;795;49.296;11.348;2022-10-31T10:02:51;6.93;;;3.93;;
1603;SDS011;795;49.296;11.348;2022-10-31T10:05:44;8.87;;;4.10;;
1603;SDS011;795;49.296;11.348;2022-10-31T10:08:26;5.97;;;3.53;;
1603;SDS011;795;49.296;11.348;2022-10-31T10:17:24;7.50;;;3.00;;
1603;SDS011;795;49.296;11.348;2022-10-31T10:23:55;6.50;;;2.97;;
1603;SDS011;795;49.296;11.348;2022-10-31T10:26:43;6.27;;;3.50;;
1603;SDS011;795;49.296;11.348;2022-10-31T10:29:57;6.90;;;3.17;;
1603;SDS011;795;49.296;11.348;2022-10-31T10:32:48;7.47;;;3.43;;
1603;SDS011;795;49.296;11.348;2022-10-31T10:35:22;6.63;;;3.20;;
1603;SDS011;795;49.296;11.348;2022-10-31T10:38:09;6.13;;;4.00;;
1603;SDS011;795;49.296;11.348;2022-10-31T10:41:19;3.93;;;3.50;;
1603;SDS011;795;49.296;11.348;2022-10-31T10:43:50;6.97;;;2.60;;
1603;SDS011;795;49.296;11.348;2022-10-31T10:49:45;12.23;;;3.23;;
1603;SDS011;795;49.296;11.348;2022-10-31T10:52:34;10.30;;;3.17;;
1603;SDS011;795;49.296;11.348;2022-10-31T10:55:40;6.23;;;3.23;;
1603;SDS011;795;49.296;11.348;2022-10-31T10:58:22;5.90;;;3.00;;
1603;SDS011;795;49.296;11.348;2022-10-31T11:00:49;7.63;;;3.30;;
1603;SDS011;795;49.296;11.348;2022-10-31T11:03:21;5.37;;;3.40;;
1603;SDS011;795;49.296;11.348;2022-10-31T11:05:51;3.77;;;3.30;;
1603;SDS011;795;49.296;11.348;2022-10-31T11:08:34;7.30;;;3.00;;
1603;SDS011;795;49.296;11.348;2022-10-31T11:13:58;6.53;;;3.40;;
1603;SDS011;795;49.296;11.348;2022-10-31T11:16:42;4.73;;;3.20;;
1603;SDS011;795;49.296;11.348;2022-10-31T11:19:24;5.60;;;2.83;;
1603;SDS011;795;49.296;11.348;2022-10-31T11:21:53;5.17;;;3.10;;
1603;SDS011;795;49.296;11.348;2022-10-31T11:24:38;5.73;;;3.00;;
1603;SDS011;795;49.296;11.348;2022-10-31T11:27:20;5.77;;;2.67;;
1603;SDS011;795;49.296;11.348;2022-10-31T11:29:51;4.00;;;2.83;;
1603;SDS011;795;49.296;11.348;2022-10-31T11:32:26;6.77;;;2.80;;
1603;SDS011;795;49.296;11.348;2022-10-31T11:34:56;5.97;;;3.20;;
1603;SDS011;795;49.296;11.348;2022-10-31T11:37:35;10.60;;;3.70;;
1603;SDS011;795;49.296;11.348;2022-10-31T11:40:14;9.37;;;4.87;;
1603;SDS011;795;49.296;11.348;2022-10-31T11:42:54;4.17;;;3.77;;
1603;SDS011;795;49.296;11.348;2022-10-31T11:48:00;6.60;;;4.30;;
1603;SDS011;795;49.296;11.348;2022-10-31T11:50:40;7.43;;;4.37;;
1603;SDS011;795;49.296;11.348;2022-10-31T11:53:16;7.90;;;4.30;;
1603;SDS011;795;49.296;11.348;2022-10-31T11:55:59;10.80;;;3.60;;
1603;SDS011;795;49.296;11.348;2022-10-31T11:58:56;8.30;;;4.63;;
1603;SDS011;795;49.296;11.348;2022-10-31T12:01:47;5.00;;;3.53;;
1603;SDS011;795;49.296;11.348;2022-10-31T12:04:17;4.10;;;3.23;;
1603;SDS011;795;49.296;11.348;2022-10-31T12:07:03;12.63;;;4.50;;
1603;SDS011;795;49.296;11.348;2022-10-31T12:09:33;5.47;;;3.23;;
1603;SDS011;795;49.296;11.348;2022-10-31T12:15:33;3.90;;;2.70;;
1603;SDS011;795;49.296;11.348;2022-10-31T12:18:17;4.77;;;3.20;;
1603;SDS011;795;49.296;11.348;2022-10-31T12:21:19;4.10;;;2.40;;
1603;SDS011;795;49.296;11.348;2022-10-31T12:24:42;4.70;;;2.50;;
1603;SDS011;795;49.296;11.348;2022-10-31T12:27:51;9.50;;;3.43;;
1603;SDS011;795;49.296;11.348;2022-10-31T12:37:20;3.67;;;2.53;;
1603;SDS011;795;49.296;11.348;2022-10-31T12:40:27;7.80;;;3.43;;
1603;SDS011;795;49.296;11.348;2022-10-31T12:49:24;5.20;;;2.70;;
1603;SDS011;795;49.296;11.348;2022-10-31T12:52:32;5.23;;;2.67;;
1603;SDS011;795;49.296;11.348;2022-10-31T12:58:38;3.67;;;2.50;;
1603;SDS011;795;49.296;11.348;2022-10-31T13:01:24;4.47;;;2.70;;
1603;SDS011;795;49.296;11.348;2022-10-31T13:07:05;10.63;;;2.80;;
1603;SDS011;795;49.296;11.348;2022-10-31T13:09:47;6.53;;;2.20;;
1603;SDS011;795;49.296;11.348;2022-10-31T13:12:30;4.57;;;2.57;;
1603;SDS011;795;49.296;11.348;2022-10-31T13:15:04;7.77;;;3.53;;
1603;SDS011;795;49.296;11.348;2022-10-31T13:17:54;5.80;;;3.00;;
1603;SDS011;795;49.296;11.348;2022-10-31T13:20:39;4.87;;;3.10;;
1603;SDS011;795;49.296;11.348;2022-10-31T13:23:34;8.20;;;3.47;;
1603;SDS011;795;49.296;11.348;2022-10-31T13:26:38;5.30;;;3.03;;
1603;SDS011;795;49.296;11.348;2022-10-31T13:29:28;4.00;;;3.30;;
1603;SDS011;795;49.296;11.348;2022-10-31T13:32:46;4.83;;;3.87;;
1603;SDS011;795;49.296;11.348;2022-10-31T13:38:56;9.90;;;3.47;;
1603;SDS011;795;49.296;11.348;2022-10-31T13:42:19;4.17;;;3.23;;
1603;SDS011;795;49.296;11.348;2022-10-31T13:45:47;7.20;;;2.97;;
1603;SDS011;795;49.296;11.348;2022-10-31T13:48:29;6.27;;;3.50;;
1603;SDS011;795;49.296;11.348;2022-10-31T13:51:09;4.43;;;2.90;;
1603;SDS011;795;49.296;11.348;2022-10-31T13:56:30;6.50;;;3.20;;
1603;SDS011;795;49.296;11.348;2022-10-31T13:59:03;6.57;;;3.67;;
1603;SDS011;795;49.296;11.348;2022-10-31T14:01:45;6.67;;;3.37;;
1603;SDS011;795;49.296;11.348;2022-10-31T14:04:51;7.80;;;3.40;;
1603;SDS011;795;49.296;11.348;2022-10-31T14:07:21;5.93;;;3.17;;
1603;SDS011;795;49.296;11.348;2022-10-31T14:12:46;5.80;;;3.30;;
1603;SDS011;795;49.296;11.348;2022-10-31T14:15:22;8.63;;;3.40;;
1603;SDS011;795;49.296;11.348;2022-10-31T14:23:10;5.60;;;3.87;;
1603;SDS011;795;49.296;11.348;2022-10-31T14:31:43;7.00;;;4.30;;
1603;SDS011;795;49.296;11.348;2022-10-31T14:34:22;4.50;;;4.00;;
1603;SDS011;795;49.296;11.348;2022-10-31T14:43:32;6.00;;;4.03;;
1603;SDS011;795;49.296;11.348;2022-10-31T14:46:56;11.13;;;5.53;;
1603;SDS011;795;49.296;11.348;2022-10-31T14:50:20;5.93;;;5.33;;
1603;SDS011;795;49.296;11.348;2022-10-31T14:53:18;6.27;;;4.80;;
1603;SDS011;795;49.296;11.348;2022-10-31T14:56:09;12.33;;;5.60;;
1603;SDS011;795;49.296;11.348;2022-10-31T14:58:38;5.67;;;4.97;;
1603;SDS011;795;49.296;11.348;2022-10-31T15:04:22;8.73;;;5.63;;
1603;SDS011;795;49.296;11.348;2022-10-31T15:07:10;9.10;;;5.60;;
1603;SDS011;795;49.296;11.348;2022-10-31T15:10:04;7.83;;;5.63;;
1603;SDS011;795;49.296;11.348;2022-10-31T15:12:49;12.40;;;8.20;;
1603;SDS011;795;49.296;11.348;2022-10-31T15:15:23;20.40;;;10.53;;
1603;SDS011;795;49.296;11.348;2022-10-31T15:17:55;14.50;;;9.70;;
1603;SDS011;795;49.296;11.348;2022-10-31T15:20:27;18.83;;;12.60;;
1603;SDS011;795;49.296;11.348;2022-10-31T15:23:21;32.60;;;17.70;;
1603;SDS011;795;49.296;11.348;2022-10-31T15:25:59;11.47;;;7.63;;
1603;SDS011;795;49.296;11.348;2022-10-31T15:28:31;8.93;;;5.77;;
1603;SDS011;795;49.296;11.348;2022-10-31T15:30:59;9.23;;;4.80;;
1603;SDS011;795;49.296;11.348;2022-10-31T15:33:38;9.03;;;5.60;;
1603;SDS011;795;49.296;11.348;2022-10-31T15:36:23;10.00;;;5.90;;
1603;SDS011;795;49.296;11.348;2022-10-31T15:38:56;10.10;;;5.20;;
1603;SDS011;795;49.296;11.348;2022-10-31T15:41:26;10.23;;;5.60;;
1603;SDS011;795;49.296;11.348;2022-10-31T15:44:33;11.10;;;6.63;;
1603;SDS011;795;49.296;11.348;2022-10-31T15:47:18;12.30;;;5.43;;
1603;SDS011;795;49.296;11.348;2022-10-31T15:49:51;12.77;;;5.23;;
1603;SDS011;795;49.296;11.348;2022-10-31T15:52:29;5.97;;;4.80;;
1603;SDS011;795;49.296;11.348;2022-10-31T15:57:51;11.43;;;6.10;;
1603;SDS011;795;49.296;11.348;2022-10-31T16:00:33;11.83;;;6.57;;
1603;SDS011;795;49.296;11.348;2022-10-31T16:03:05;10.00;;;6.43;;
1603;SDS011;795;49.296;11.348;2022-10-31T16:05:57;9.60;;;6.53;;
1603;SDS011;795;49.296;11.348;2022-10-31T16:10:56;7.30;;;5.70;;
1603;SDS011;795;49.296;11.348;2022-10-31T16:13:34;12.93;;;6.10;;
1603;SDS011;795;49.296;11.348;2022-10-31T16:16:14;20.17;;;7.13;;
1603;SDS011;795;49.296;11.348;2022-10-31T16:19:02;11.93;;;6.13;;
1603;SDS011;795;49.296;11.348;2022-10-31T16:21:39;12.17;;;6.70;;
1603;SDS011;795;49.296;11.348;2022-10-31T16:27:03;16.30;;;6.23;;
1603;SDS011;795;49.296;11.348;2022-10-31T16:29:46;14.73;;;6.47;;
1603;SDS011;795;49.296;11.348;2022-10-31T16:35:26;11.37;;;6.20;;
1603;SDS011;795;49.296;11.348;2022-10-31T16:38:04;16.60;;;6.90;;
1603;SDS011;795;49.296;11.348;2022-10-31T16:40:35;9.20;;;5.90;;
1603;SDS011;795;49.296;11.348;2022-10-31T16:43:09;31.77;;;6.70;;
1603;SDS011;795;49.296;11.348;2022-10-31T16:45:49;13.60;;;7.67;;
1603;SDS011;795;49.296;11.348;2022-10-31T16:48:19;13.00;;;5.90;;
1603;SDS011;795;49.296;11.348;2022-10-31T16:50:49;12.70;;;7.87;;
1603;SDS011;795;49.296;11.348;2022-10-31T16:53:19;14.90;;;7.00;;
1603;SDS011;795;49.296;11.348;2022-10-31T16:55:51;9.73;;;6.37;;
1603;SDS011;795;49.296;11.348;2022-10-31T17:00:59;10.00;;;6.57;;
1603;SDS011;795;49.296;11.348;2022-10-31T17:03:31;14.70;;;6.33;;
1603;SDS011;795;49.296;11.348;2022-10-31T17:05:58;15.40;;;7.80;;
1603;SDS011;795;49.296;11.348;2022-10-31T17:08:25;35.03;;;16.90;;
1603;SDS011;795;49.296;11.348;2022-10-31T17:10:55;33.07;;;21.73;;
1603;SDS011;795;49.296;11.348;2022-10-31T17:13:26;13.90;;;9.70;;
1603;SDS011;795;49.296;11.348;2022-10-31T17:15:58;55.57;;;28.07;;
1603;SDS011;795;49.296;11.348;2022-10-31T17:18:28;23.27;;;12.07;;
1603;SDS011;795;49.296;11.348;2022-10-31T17:20:56;16.10;;;9.53;;
1603;SDS011;795;49.296;11.348;2022-10-31T17:23:31;11.00;;;7.50;;
1603;SDS011;795;49.296;11.348;2022-10-31T17:25:58;15.60;;;10.93;;
1603;SDS011;795;49.296;11.348;2022-10-31T17:28:25;14.43;;;11.30;;
1603;SDS011;795;49.296;11.348;2022-10-31T17:30:53;21.53;;;14.10;;
1603;SDS011;795;49.296;11.348;2022-10-31T17:33:24;13.43;;;8.67;;
1603;SDS011;795;49.296;11.348;2022-10-31T17:35:51;19.43;;;9.40;;
1603;SDS011;795;49.296;11.348;2022-10-31T17:38:18;15.97;;;9.30;;
1603;SDS011;795;49.296;11.348;2022-10-31T17:40:45;10.60;;;9.10;;
1603;SDS011;795;49.296;11.348;2022-10-31T17:43:13;18.20;;;11.07;;
1603;SDS011;795;49.296;11.348;2022-10-31T17:45:40;18.80;;;11.00;;
1603;SDS011;795;49.296;11.348;2022-10-31T17:48:11;17.83;;;9.67;;
1603;SDS011;795;49.296;11.348;2022-10-31T17:50:39;15.43;;;11.10;;
1603;SDS011;795;49.296;11.348;2022-10-31T17:53:06;25.67;;;20.43;;
1603;SDS011;795;49.296;11.348;2022-10-31T17:55:33;25.30;;;17.90;;
1603;SDS011;795;49.296;11.348;2022-10-31T17:58:03;28.97;;;18.10;;
1603;SDS011;795;49.296;11.348;2022-10-31T18:00:30;25.77;;;17.07;;
1603;SDS011;795;49.296;11.348;2022-10-31T18:02:58;22.20;;;15.00;;
1603;SDS011;795;49.296;11.348;2022-10-31T18:05:29;20.47;;;14.00;;
1603;SDS011;795;49.296;11.348;2022-10-31T18:07:56;19.80;;;15.13;;
1603;SDS011;795;49.296;11.348;2022-10-31T18:10:29;19.97;;;14.23;;